TK981 LTFM-LTFD

Flight info

Callsign TK981
Flight time 0h 26m
Altitude 22000
Route IVGUS1G/17R IVGUS Y226 BIG N618 KONEN
Aircraft C700/M-SBDGHM1RWXY/LB2

Departure

Time 2026-05-09 12:10
Airport İstanbul Airport (LTFM)

Arrival

Time 2026-05-09 12:37
Airport Balıkesir Koca Seyit Airport (LTFD)
Time Latitude Longitude Altitude Speed Heading
2026-05-09 11:37 41.25687 28.73709 328 ft 0 kts 359°
2026-05-09 11:54 41.25685 28.73709 328 ft 2 kts 359°
2026-05-09 11:54 41.25669 28.73710 328 ft 2 kts 356°
2026-05-09 11:54 41.25652 28.73712 327 ft 2 kts 353°
2026-05-09 11:55 41.25636 28.73715 326 ft 2 kts 347°
2026-05-09 11:56 41.25614 28.73737 328 ft 0 kts 269°
2026-05-09 11:57 41.25614 28.73734 328 ft 1 kts 269°
2026-05-09 11:57 41.25614 28.73703 328 ft 7 kts 269°
2026-05-09 11:57 41.25612 28.73608 328 ft 14 kts 268°
2026-05-09 11:57 41.25611 28.73586 328 ft 1 kts 267°
2026-05-09 11:58 41.25609 28.73524 328 ft 13 kts 270°
2026-05-09 11:58 41.25606 28.73393 328 ft 15 kts 266°
2026-05-09 11:58 41.25628 28.73259 327 ft 16 kts 314°
2026-05-09 11:58 41.25747 28.73245 325 ft 19 kts
2026-05-09 11:59 41.25891 28.73245 327 ft 23 kts 359°
2026-05-09 11:59 41.26058 28.73238 327 ft 23 kts 358°
2026-05-09 11:59 41.26202 28.73238 328 ft 19 kts 358°
2026-05-09 11:59 41.26333 28.73232 327 ft 20 kts 357°
2026-05-09 12:00 41.26418 28.73229 327 ft 9 kts
2026-05-09 12:00 41.26494 28.73230 325 ft 13 kts 358°
2026-05-09 12:00 41.26595 28.73224 328 ft 16 kts 359°
2026-05-09 12:00 41.26699 28.73226 325 ft 17 kts 359°
2026-05-09 12:01 41.26796 28.73223 326 ft 10 kts 359°
2026-05-09 12:01 41.26861 28.73178 328 ft 11 kts 284°
2026-05-09 12:01 41.26912 28.73106 328 ft 13 kts 352°
2026-05-09 12:01 41.27018 28.73099 326 ft 17 kts 358°
2026-05-09 12:02 41.27151 28.73098 326 ft 21 kts 359°
2026-05-09 12:02 41.27298 28.73094 327 ft 22 kts 359°
2026-05-09 12:02 41.27447 28.73090 328 ft 21 kts 359°
2026-05-09 12:02 41.27579 28.73072 328 ft 14 kts 321°
2026-05-09 12:03 41.27606 28.72987 328 ft 11 kts 308°
2026-05-09 12:03 41.27680 28.72968 326 ft 13 kts 355°
2026-05-09 12:03 41.27782 28.72966 327 ft 17 kts 359°
2026-05-09 12:03 41.27911 28.72961 328 ft 20 kts 358°
2026-05-09 12:04 41.28059 28.72958 327 ft 20 kts
2026-05-09 12:04 41.28148 28.72957 327 ft 19 kts 359°
2026-05-09 12:04 41.28312 28.72953 328 ft 14 kts 359°
2026-05-09 12:04 41.28422 28.72950 325 ft 18 kts 360°
2026-05-09 12:05 41.28510 28.72950 327 ft 19 kts 359°
2026-05-09 12:05 41.28623 28.72947 328 ft 16 kts 358°
2026-05-09 12:05 41.28748 28.72941 326 ft 20 kts 359°
2026-05-09 12:05 41.28893 28.72938 327 ft 18 kts
2026-05-09 12:06 41.29028 28.72937 328 ft 21 kts 359°
2026-05-09 12:06 41.29189 28.72931 328 ft 25 kts 358°
2026-05-09 12:06 41.29356 28.72929 328 ft 24 kts 359°
2026-05-09 12:06 41.29479 28.72901 328 ft 14 kts 309°
2026-05-09 12:07 41.29492 28.72777 326 ft 15 kts 269°
2026-05-09 12:07 41.29488 28.72622 328 ft 18 kts 269°
2026-05-09 12:07 41.29480 28.72482 328 ft 13 kts 244°
2026-05-09 12:07 41.29434 28.72453 328 ft 0 kts 177°
2026-05-09 12:08 41.29433 28.72453 328 ft 3 kts 178°
2026-05-09 12:09 41.29259 28.72458 328 ft 52 kts 179°
2026-05-09 12:09 41.28624 28.72457 328 ft 128 kts 183°
2026-05-09 12:09 41.27580 28.72427 748 ft 166 kts 185°
2026-05-09 12:10 41.23626 28.72705 4605 ft 217 kts 183°
2026-05-09 12:10 41.21959 28.72726 5419 ft 265 kts 183°
2026-05-09 12:10 41.20088 28.72655 5425 ft 266 kts 191°
2026-05-09 12:11 41.18329 28.72049 5430 ft 257 kts 203°
2026-05-09 12:11 41.16740 28.70987 5423 ft 254 kts 214°
2026-05-09 12:11 41.15383 28.69554 5417 ft 251 kts 224°
2026-05-09 12:11 41.14098 28.67981 5418 ft 250 kts 223°
2026-05-09 12:12 41.12909 28.66312 5418 ft 249 kts 233°
2026-05-09 12:12 41.12034 28.64330 5438 ft 250 kts 245°
2026-05-09 12:12 41.11527 28.62128 6690 ft 244 kts 256°
2026-05-09 12:12 41.11139 28.59915 8595 ft 252 kts 255°
2026-05-09 12:13 41.10715 28.57609 10237 ft 261 kts 256°
2026-05-09 12:13 41.10283 28.55140 11508 ft 288 kts 256°
2026-05-09 12:13 41.09837 28.52527 13078 ft 296 kts 256°
2026-05-09 12:13 41.09369 28.49826 14662 ft 306 kts 256°
2026-05-09 12:14 41.08879 28.47027 16125 ft 315 kts 256°
2026-05-09 12:14 41.08377 28.44161 17549 ft 324 kts 256°
2026-05-09 12:14 41.07861 28.41203 18879 ft 333 kts 256°
2026-05-09 12:14 41.07331 28.38174 20084 ft 340 kts 256°
2026-05-09 12:15 41.06696 28.35151 21154 ft 348 kts 246°
2026-05-09 12:15 41.05236 28.32561 22253 ft 357 kts 226°
2026-05-09 12:15 41.03305 28.30249 22423 ft 391 kts 221°
2026-05-09 12:15 41.01118 28.27847 22435 ft 423 kts 221°
2026-05-09 12:16 40.98900 28.25198 22424 ft 432 kts 225°
2026-05-09 12:16 40.96835 28.22397 22427 ft 429 kts 227°
2026-05-09 12:16 40.94732 28.19588 22425 ft 427 kts 225°
2026-05-09 12:16 40.92554 28.16893 22424 ft 427 kts 224°
2026-05-09 12:17 40.90378 28.14211 22423 ft 427 kts 225°
2026-05-09 12:17 40.88240 28.11567 22413 ft 428 kts 220°
2026-05-09 12:17 40.85763 28.09362 22417 ft 431 kts 212°
2026-05-09 12:17 40.83129 28.07433 22418 ft 432 kts 210°
2026-05-09 12:18 40.80459 28.05569 22423 ft 433 kts 211°
2026-05-09 12:18 40.77876 28.03528 22422 ft 432 kts 215°
2026-05-09 12:18 40.75350 28.01369 22424 ft 433 kts 215°
2026-05-09 12:18 40.72802 27.99311 22427 ft 434 kts 213°
2026-05-09 12:19 40.70182 27.97310 22425 ft 433 kts 212°
2026-05-09 12:19 40.67593 27.95285 22423 ft 430 kts 214°
2026-05-09 12:19 40.65043 27.93225 22423 ft 429 kts 214°
2026-05-09 12:19 40.62490 27.91181 22420 ft 429 kts 214°
2026-05-09 12:20 40.59955 27.89191 22420 ft 430 kts 214°
2026-05-09 12:20 40.57379 27.87168 22421 ft 431 kts 214°
2026-05-09 12:20 40.54810 27.85132 22422 ft 432 kts 214°
2026-05-09 12:20 40.52232 27.83090 22410 ft 432 kts 214°
2026-05-09 12:21 40.49664 27.81069 22419 ft 428 kts 214°
2026-05-09 12:21 40.47108 27.79059 22419 ft 427 kts 214°
2026-05-09 12:21 40.44563 27.77054 22414 ft 426 kts 214°
2026-05-09 12:21 40.42043 27.75069 22415 ft 427 kts 214°
2026-05-09 12:22 40.39489 27.73064 22416 ft 427 kts 214°
2026-05-09 12:22 40.36927 27.71054 22417 ft 428 kts 214°
2026-05-09 12:22 40.34378 27.69056 22416 ft 428 kts 214°
2026-05-09 12:22 40.31812 27.67043 22420 ft 429 kts 214°
2026-05-09 12:23 40.29255 27.65043 22356 ft 422 kts 214°
2026-05-09 12:23 40.26771 27.63104 20604 ft 416 kts 214°
2026-05-09 12:23 40.24299 27.61168 19209 ft 408 kts 214°
2026-05-09 12:23 40.21925 27.59313 17809 ft 399 kts 214°
2026-05-09 12:24 40.19566 27.57443 16357 ft 390 kts 216°
2026-05-09 12:24 40.17477 27.55372 15922 ft 365 kts 222°
2026-05-09 12:24 40.15495 27.53234 14180 ft 382 kts 223°
2026-05-09 12:24 40.13370 27.51080 12060 ft 387 kts 219°
2026-05-09 12:25 40.11194 27.49057 10240 ft 387 kts 217°
2026-05-09 12:25 40.09334 27.47305 9710 ft 276 kts 219°
2026-05-09 12:25 40.07940 27.45925 9711 ft 231 kts 221°
2026-05-09 12:25 40.06711 27.44713 9714 ft 213 kts 220°
2026-05-09 12:26 40.05546 27.43581 9713 ft 205 kts 220°
2026-05-09 12:26 40.04411 27.42476 9718 ft 201 kts 220°
2026-05-09 12:26 40.03306 27.41403 9725 ft 199 kts 221°
2026-05-09 12:26 40.02198 27.40326 9723 ft 198 kts 221°
2026-05-09 12:27 40.01092 27.39252 9728 ft 198 kts 221°
2026-05-09 12:27 39.99985 27.38181 9723 ft 198 kts 221°
2026-05-09 12:27 39.98870 27.37098 9661 ft 200 kts 221°
2026-05-09 12:27 39.97761 27.36026 9662 ft 197 kts 221°
2026-05-09 12:28 39.96659 27.34962 9661 ft 196 kts 221°
2026-05-09 12:28 39.95574 27.33909 9660 ft 196 kts 221°
2026-05-09 12:28 39.94468 27.32837 9676 ft 209 kts 221°
2026-05-09 12:28 39.93191 27.31586 9686 ft 245 kts 220°
2026-05-09 12:29 39.91687 27.30236 9670 ft 280 kts 212°
2026-05-09 12:29 39.89813 27.29333 9672 ft 289 kts 197°
2026-05-09 12:29 39.87858 27.28951 9667 ft 285 kts 191°
2026-05-09 12:29 39.85917 27.28614 9488 ft 277 kts 192°
2026-05-09 12:30 39.83995 27.28251 8762 ft 280 kts 192°
2026-05-09 12:30 39.82107 27.27759 8241 ft 271 kts 200°
2026-05-09 12:30 39.78930 27.25375 7116 ft 263 kts 221°
2026-05-09 12:31 39.77523 27.23872 6597 ft 261 kts 221°
2026-05-09 12:31 39.74722 27.20939 5701 ft 250 kts 220°
2026-05-09 12:31 39.73420 27.19571 5759 ft 235 kts 220°
2026-05-09 12:32 39.72150 27.18231 5793 ft 234 kts 220°
2026-05-09 12:32 39.70911 27.16931 5461 ft 230 kts 221°
2026-05-09 12:32 39.69680 27.15637 5035 ft 229 kts 220°
2026-05-09 12:32 39.68426 27.14315 4507 ft 233 kts 219°
2026-05-09 12:33 39.67167 27.12998 4099 ft 230 kts 219°
2026-05-09 12:33 39.65949 27.11745 3985 ft 217 kts 216°
2026-05-09 12:33 39.64576 27.10885 3814 ft 225 kts 198°
2026-05-09 12:33 39.63061 27.10620 3641 ft 203 kts 184°
2026-05-09 12:34 39.61862 27.10482 3684 ft 141 kts 194°
2026-05-09 12:34 39.60985 27.10125 3548 ft 128 kts 205°
2026-05-09 12:34 39.60194 27.09543 3093 ft 139 kts 215°
2026-05-09 12:34 39.59373 27.08663 2802 ft 162 kts 225°
2026-05-09 12:35 39.58617 27.07503 2542 ft 156 kts 231°
2026-05-09 12:35 39.58062 27.06557 1841 ft 115 kts 235°
2026-05-09 12:35 39.57666 27.05740 1349 ft 109 kts 240°
2026-05-09 12:35 39.57277 27.04913 1022 ft 105 kts 243°
2026-05-09 12:36 39.56892 27.04101 756 ft 105 kts 242°
2026-05-09 12:36 39.56482 27.03270 411 ft 112 kts 239°
2026-05-09 12:36 39.56054 27.02469 101 ft 103 kts 236°
2026-05-09 12:36 39.55682 27.01809 42 ft 58 kts 235°
2026-05-09 12:37 39.55514 27.01508 42 ft 37 kts 233°
2026-05-09 12:37 39.55378 27.01268 43 ft 30 kts 234°
2026-05-09 12:37 39.55260 27.01061 41 ft 25 kts 233°
2026-05-09 12:37 39.55181 27.00955 39 ft 12 kts 189°
2026-05-09 12:38 39.55107 27.00999 39 ft 11 kts 142°
2026-05-09 12:38 39.55070 27.01034 40 ft 10 kts 144°
2026-05-09 12:38 39.54997 27.01101 40 ft 7 kts 146°
2026-05-09 12:38 39.54936 27.01149 40 ft 0 kts 145°
2026-05-09 12:39 39.54928 27.01155 40 ft 1 kts 144°
2026-05-09 12:39 39.54919 27.01164 40 ft 0 kts 145°
2026-05-09 12:39 39.54913 27.01169 40 ft 0 kts 145°